KBIS/BIS METAR and TAF weather

Enter ICAO airport designator
Station Type Date Time Source
KBIS METAR 2018/04/23 10:52 UTC NOAA

KBIS 231052Z 33005KT 10SM CLR 04/02 A3016 RMK AO2 SLP218 T00390022


Station Type Date Time Source
KBIS Decoded METAR 2018/04/23 10:52 UTC NOAA

BISMARCK MUNICIPAL AIRPORT, ND, United States (KBIS) 46-47N 100-45W 503M
Apr 23, 2018 - 06:52 AM EDT / 2018.04.23 1052 UTC
Wind: from the NNW (330 degrees) at 6 MPH (5 KT):0
Visibility: 10 mile(s):0
Sky conditions: clear
Temperature: 39.0 F (3.9 C)
Dew Point: 36.0 F (2.2 C)
Relative Humidity: 88%
Pressure (altimeter): 30.16 in. Hg (1021 hPa)
ob: KBIS 231052Z 33005KT 10SM CLR 04/02 A3016 RMK AO2 SLP218 T00390022
cycle: 11

Station Type Date Time Source
KBIS TAF 2018/04/23 12:22 UTC NOAA

TAF KBIS 231120Z 2312/2412 VRB05KT P6SM FEW200
FM231800 03012KT P6SM SCT140
FM240000 02015G23KT P6SM VCSH OVC060
FM241100 36009KT P6SM VCSH BKN110


Example: see airport list